sensor_id;sensor_type;location;lat;lon;timestamp;temperature;humidity
14727;DHT22;7454;51.256;8.176;2022-11-04T00:01:32;11.00;82.20
14727;DHT22;7454;51.256;8.176;2022-11-04T00:03:58;11.00;81.60
14727;DHT22;7454;51.256;8.176;2022-11-04T00:06:23;11.00;81.90
14727;DHT22;7454;51.256;8.176;2022-11-04T00:08:50;11.00;81.90
14727;DHT22;7454;51.256;8.176;2022-11-04T00:11:19;11.00;81.90
14727;DHT22;7454;51.256;8.176;2022-11-04T00:14:04;10.90;82.00
14727;DHT22;7454;51.256;8.176;2022-11-04T00:16:31;10.90;81.70
14727;DHT22;7454;51.256;8.176;2022-11-04T00:19:15;10.90;81.90
14727;DHT22;7454;51.256;8.176;2022-11-04T00:21:41;10.90;81.70
14727;DHT22;7454;51.256;8.176;2022-11-04T00:24:25;10.90;81.90
14727;DHT22;7454;51.256;8.176;2022-11-04T00:27:10;10.80;81.80
14727;DHT22;7454;51.256;8.176;2022-11-04T00:29:55;10.80;82.10
14727;DHT22;7454;51.256;8.176;2022-11-04T00:32:21;10.80;80.90
14727;DHT22;7454;51.256;8.176;2022-11-04T00:35:06;10.70;80.50
14727;DHT22;7454;51.256;8.176;2022-11-04T00:37:35;10.60;80.10
14727;DHT22;7454;51.256;8.176;2022-11-04T00:40:02;10.60;80.20
14727;DHT22;7454;51.256;8.176;2022-11-04T00:42:27;10.60;80.20
14727;DHT22;7454;51.256;8.176;2022-11-04T00:44:53;10.50;79.80
14727;DHT22;7454;51.256;8.176;2022-11-04T00:47:19;10.50;80.10
14727;DHT22;7454;51.256;8.176;2022-11-04T00:49:44;10.40;79.90
14727;DHT22;7454;51.256;8.176;2022-11-04T00:52:10;10.40;80.00
14727;DHT22;7454;51.256;8.176;2022-11-04T00:54:35;10.30;80.00
14727;DHT22;7454;51.256;8.176;2022-11-04T00:57:01;10.30;79.90
14727;DHT22;7454;51.256;8.176;2022-11-04T00:59:27;10.20;79.80
14727;DHT22;7454;51.256;8.176;2022-11-04T01:01:52;10.20;80.10
14727;DHT22;7454;51.256;8.176;2022-11-04T01:04:18;10.20;80.00
14727;DHT22;7454;51.256;8.176;2022-11-04T01:06:44;10.20;80.20
14727;DHT22;7454;51.256;8.176;2022-11-04T01:09:10;10.30;80.30
14727;DHT22;7454;51.256;8.176;2022-11-04T01:11:36;10.20;80.10
14727;DHT22;7454;51.256;8.176;2022-11-04T01:14:01;10.20;80.10
14727;DHT22;7454;51.256;8.176;2022-11-04T01:16:27;10.10;79.90
14727;DHT22;7454;51.256;8.176;2022-11-04T01:18:53;10.20;79.80
14727;DHT22;7454;51.256;8.176;2022-11-04T01:21:19;10.10;80.10
14727;DHT22;7454;51.256;8.176;2022-11-04T01:23:45;10.10;80.00
14727;DHT22;7454;51.256;8.176;2022-11-04T01:26:15;10.10;80.30
14727;DHT22;7454;51.256;8.176;2022-11-04T01:28:42;10.10;80.00
14727;DHT22;7454;51.256;8.176;2022-11-04T01:31:09;10.10;80.00
14727;DHT22;7454;51.256;8.176;2022-11-04T01:33:37;10.00;80.20
14727;DHT22;7454;51.256;8.176;2022-11-04T01:36:04;10.00;80.00
14727;DHT22;7454;51.256;8.176;2022-11-04T01:38:31;10.00;80.20
14727;DHT22;7454;51.256;8.176;2022-11-04T01:40:56;10.00;80.10
14727;DHT22;7454;51.256;8.176;2022-11-04T01:43:30;10.10;80.10
14727;DHT22;7454;51.256;8.176;2022-11-04T01:46:22;10.00;80.00
14727;DHT22;7454;51.256;8.176;2022-11-04T01:49:01;10.10;80.00
14727;DHT22;7454;51.256;8.176;2022-11-04T01:51:31;10.10;80.00
14727;DHT22;7454;51.256;8.176;2022-11-04T01:53:59;10.00;80.10
14727;DHT22;7454;51.256;8.176;2022-11-04T01:56:25;10.00;80.10
14727;DHT22;7454;51.256;8.176;2022-11-04T01:58:51;10.00;80.10
14727;DHT22;7454;51.256;8.176;2022-11-04T02:01:18;10.00;80.00
14727;DHT22;7454;51.256;8.176;2022-11-04T02:03:55;10.00;80.00
14727;DHT22;7454;51.256;8.176;2022-11-04T02:06:43;10.00;80.10
14727;DHT22;7454;51.256;8.176;2022-11-04T02:09:11;10.00;80.20
14727;DHT22;7454;51.256;8.176;2022-11-04T02:11:37;10.00;80.10
14727;DHT22;7454;51.256;8.176;2022-11-04T02:14:21;9.90;80.10
14727;DHT22;7454;51.256;8.176;2022-11-04T02:16:47;10.00;80.20
14727;DHT22;7454;51.256;8.176;2022-11-04T02:19:24;10.00;80.20
14727;DHT22;7454;51.256;8.176;2022-11-04T02:22:12;9.90;80.10
14727;DHT22;7454;51.256;8.176;2022-11-04T02:30:21;9.90;80.10
14727;DHT22;7454;51.256;8.176;2022-11-04T02:35:38;9.90;80.10
14727;DHT22;7454;51.256;8.176;2022-11-04T02:40:37;9.90;80.20
14727;DHT22;7454;51.256;8.176;2022-11-04T02:45:47;9.90;80.10
14727;DHT22;7454;51.256;8.176;2022-11-04T02:51:09;9.90;80.20
14727;DHT22;7454;51.256;8.176;2022-11-04T02:54:03;9.90;80.20
14727;DHT22;7454;51.256;8.176;2022-11-04T02:56:31;9.90;80.20
14727;DHT22;7454;51.256;8.176;2022-11-04T02:59:02;9.90;80.20
14727;DHT22;7454;51.256;8.176;2022-11-04T03:01:31;9.90;80.20
14727;DHT22;7454;51.256;8.176;2022-11-04T03:04:01;9.80;80.20
14727;DHT22;7454;51.256;8.176;2022-11-04T03:06:34;9.80;80.10
14727;DHT22;7454;51.256;8.176;2022-11-04T03:09:00;9.80;80.10
14727;DHT22;7454;51.256;8.176;2022-11-04T03:11:26;9.80;80.00
14727;DHT22;7454;51.256;8.176;2022-11-04T03:13:57;9.80;80.00
14727;DHT22;7454;51.256;8.176;2022-11-04T03:16:30;9.80;80.10
14727;DHT22;7454;51.256;8.176;2022-11-04T03:19:00;9.80;80.00
14727;DHT22;7454;51.256;8.176;2022-11-04T03:21:40;9.70;80.00
14727;DHT22;7454;51.256;8.176;2022-11-04T03:24:09;9.80;80.10
14727;DHT22;7454;51.256;8.176;2022-11-04T03:26:46;9.80;80.00
14727;DHT22;7454;51.256;8.176;2022-11-04T03:34:30;9.70;80.00
14727;DHT22;7454;51.256;8.176;2022-11-04T03:36:57;9.70;79.90
14727;DHT22;7454;51.256;8.176;2022-11-04T03:39:23;9.70;79.90
14727;DHT22;7454;51.256;8.176;2022-11-04T03:41:59;9.60;79.90
14727;DHT22;7454;51.256;8.176;2022-11-04T03:44:28;9.70;80.00
14727;DHT22;7454;51.256;8.176;2022-11-04T03:46:54;9.60;80.10
14727;DHT22;7454;51.256;8.176;2022-11-04T03:49:20;9.60;80.00
14727;DHT22;7454;51.256;8.176;2022-11-04T03:51:47;9.60;79.90
14727;DHT22;7454;51.256;8.176;2022-11-04T03:54:13;9.60;79.90
14727;DHT22;7454;51.256;8.176;2022-11-04T03:59:31;9.60;80.00
14727;DHT22;7454;51.256;8.176;2022-11-04T04:02:02;9.60;80.00
14727;DHT22;7454;51.256;8.176;2022-11-04T04:04:43;9.60;79.80
14727;DHT22;7454;51.256;8.176;2022-11-04T04:07:18;9.60;79.90
14727;DHT22;7454;51.256;8.176;2022-11-04T04:09:54;9.60;79.90
14727;DHT22;7454;51.256;8.176;2022-11-04T04:12:34;9.60;79.90
14727;DHT22;7454;51.256;8.176;2022-11-04T04:15:10;9.70;79.80
14727;DHT22;7454;51.256;8.176;2022-11-04T04:17:42;9.60;79.90
14727;DHT22;7454;51.256;8.176;2022-11-04T04:20:21;9.60;79.80
14727;DHT22;7454;51.256;8.176;2022-11-04T04:22:51;9.50;79.60
14727;DHT22;7454;51.256;8.176;2022-11-04T04:25:19;9.50;79.80
14727;DHT22;7454;51.256;8.176;2022-11-04T04:28:06;9.50;79.80
14727;DHT22;7454;51.256;8.176;2022-11-04T04:30:32;9.40;79.70
14727;DHT22;7454;51.256;8.176;2022-11-04T04:33:00;9.40;79.80
14727;DHT22;7454;51.256;8.176;2022-11-04T04:35:32;9.40;79.80
14727;DHT22;7454;51.256;8.176;2022-11-04T04:38:21;9.40;79.90
14727;DHT22;7454;51.256;8.176;2022-11-04T04:41:16;9.50;80.00
14727;DHT22;7454;51.256;8.176;2022-11-04T04:44:03;9.40;79.90
14727;DHT22;7454;51.256;8.176;2022-11-04T04:46:49;9.40;79.90
14727;DHT22;7454;51.256;8.176;2022-11-04T04:49:16;9.40;79.70
14727;DHT22;7454;51.256;8.176;2022-11-04T04:51:43;9.40;79.70
14727;DHT22;7454;51.256;8.176;2022-11-04T04:54:10;9.30;79.70
14727;DHT22;7454;51.256;8.176;2022-11-04T04:56:36;9.30;79.70
14727;DHT22;7454;51.256;8.176;2022-11-04T04:59:01;9.20;79.70
14727;DHT22;7454;51.256;8.176;2022-11-04T05:01:27;9.20;79.60
14727;DHT22;7454;51.256;8.176;2022-11-04T05:03:53;9.20;79.70
14727;DHT22;7454;51.256;8.176;2022-11-04T05:06:18;9.20;79.70
14727;DHT22;7454;51.256;8.176;2022-11-04T05:08:44;9.10;79.70
14727;DHT22;7454;51.256;8.176;2022-11-04T05:11:10;9.10;79.70
14727;DHT22;7454;51.256;8.176;2022-11-04T05:13:36;9.20;79.70
14727;DHT22;7454;51.256;8.176;2022-11-04T05:16:02;9.20;79.60
14727;DHT22;7454;51.256;8.176;2022-11-04T05:18:29;9.20;79.70
14727;DHT22;7454;51.256;8.176;2022-11-04T05:20:55;9.20;79.60
14727;DHT22;7454;51.256;8.176;2022-11-04T05:23:21;9.20;79.60
14727;DHT22;7454;51.256;8.176;2022-11-04T05:25:46;9.00;79.50
14727;DHT22;7454;51.256;8.176;2022-11-04T05:28:12;9.10;79.60
14727;DHT22;7454;51.256;8.176;2022-11-04T05:30:38;9.10;79.60
14727;DHT22;7454;51.256;8.176;2022-11-04T05:33:03;9.10;79.70
14727;DHT22;7454;51.256;8.176;2022-11-04T05:35:29;9.10;79.50
14727;DHT22;7454;51.256;8.176;2022-11-04T05:37:55;9.10;79.60
14727;DHT22;7454;51.256;8.176;2022-11-04T05:40:21;9.10;79.60
14727;DHT22;7454;51.256;8.176;2022-11-04T05:42:47;9.10;79.70
14727;DHT22;7454;51.256;8.176;2022-11-04T05:45:13;9.20;79.70
14727;DHT22;7454;51.256;8.176;2022-11-04T05:47:39;9.20;79.80
14727;DHT22;7454;51.256;8.176;2022-11-04T05:50:05;9.20;79.80
14727;DHT22;7454;51.256;8.176;2022-11-04T05:52:31;9.20;79.80
14727;DHT22;7454;51.256;8.176;2022-11-04T05:54:56;9.20;80.00
14727;DHT22;7454;51.256;8.176;2022-11-04T05:57:22;9.30;79.90
14727;DHT22;7454;51.256;8.176;2022-11-04T05:59:48;9.30;79.90
14727;DHT22;7454;51.256;8.176;2022-11-04T06:02:13;9.30;79.90
14727;DHT22;7454;51.256;8.176;2022-11-04T06:04:39;9.30;79.80
14727;DHT22;7454;51.256;8.176;2022-11-04T06:07:04;9.30;79.80
14727;DHT22;7454;51.256;8.176;2022-11-04T06:09:30;9.30;79.70
14727;DHT22;7454;51.256;8.176;2022-11-04T06:14:31;9.30;79.70
14727;DHT22;7454;51.256;8.176;2022-11-04T06:16:57;9.30;79.70
14727;DHT22;7454;51.256;8.176;2022-11-04T06:19:24;9.30;79.80
14727;DHT22;7454;51.256;8.176;2022-11-04T06:21:49;9.30;79.60
14727;DHT22;7454;51.256;8.176;2022-11-04T06:24:15;9.40;79.80
14727;DHT22;7454;51.256;8.176;2022-11-04T06:26:41;9.40;79.90
14727;DHT22;7454;51.256;8.176;2022-11-04T06:29:06;9.40;79.90
14727;DHT22;7454;51.256;8.176;2022-11-04T06:31:32;9.40;79.90
14727;DHT22;7454;51.256;8.176;2022-11-04T06:33:57;9.40;79.70
14727;DHT22;7454;51.256;8.176;2022-11-04T06:36:23;9.30;79.80
14727;DHT22;7454;51.256;8.176;2022-11-04T06:38:49;9.30;79.70
14727;DHT22;7454;51.256;8.176;2022-11-04T06:41:15;9.30;79.60
14727;DHT22;7454;51.256;8.176;2022-11-04T06:43:41;9.20;79.60
14727;DHT22;7454;51.256;8.176;2022-11-04T06:46:22;9.20;79.70
14727;DHT22;7454;51.256;8.176;2022-11-04T06:48:49;9.20;79.70
14727;DHT22;7454;51.256;8.176;2022-11-04T06:51:14;9.20;79.80
14727;DHT22;7454;51.256;8.176;2022-11-04T06:53:40;9.20;79.80
14727;DHT22;7454;51.256;8.176;2022-11-04T06:56:06;9.20;79.90
14727;DHT22;7454;51.256;8.176;2022-11-04T06:58:31;9.20;79.90
14727;DHT22;7454;51.256;8.176;2022-11-04T07:00:57;9.20;79.80
14727;DHT22;7454;51.256;8.176;2022-11-04T07:03:23;9.10;79.90
14727;DHT22;7454;51.256;8.176;2022-11-04T07:05:48;9.10;79.90
14727;DHT22;7454;51.256;8.176;2022-11-04T07:08:14;9.10;79.80
14727;DHT22;7454;51.256;8.176;2022-11-04T07:10:40;9.10;79.70
14727;DHT22;7454;51.256;8.176;2022-11-04T07:13:05;9.10;79.80
14727;DHT22;7454;51.256;8.176;2022-11-04T07:15:31;9.10;79.80
14727;DHT22;7454;51.256;8.176;2022-11-04T07:17:58;9.00;79.80
14727;DHT22;7454;51.256;8.176;2022-11-04T07:20:23;9.00;79.70
14727;DHT22;7454;51.256;8.176;2022-11-04T07:22:49;9.00;79.70
14727;DHT22;7454;51.256;8.176;2022-11-04T07:25:15;9.00;79.80
14727;DHT22;7454;51.256;8.176;2022-11-04T07:27:41;8.90;79.70
14727;DHT22;7454;51.256;8.176;2022-11-04T07:30:07;8.90;79.70
14727;DHT22;7454;51.256;8.176;2022-11-04T07:32:32;8.90;79.60
14727;DHT22;7454;51.256;8.176;2022-11-04T07:34:58;9.10;79.90
14727;DHT22;7454;51.256;8.176;2022-11-04T07:37:24;8.90;79.70
14727;DHT22;7454;51.256;8.176;2022-11-04T07:39:49;8.90;79.70
14727;DHT22;7454;51.256;8.176;2022-11-04T07:42:15;8.90;79.70
14727;DHT22;7454;51.256;8.176;2022-11-04T07:44:40;8.80;79.70
14727;DHT22;7454;51.256;8.176;2022-11-04T07:47:06;8.80;79.50
14727;DHT22;7454;51.256;8.176;2022-11-04T07:49:32;8.80;79.60
14727;DHT22;7454;51.256;8.176;2022-11-04T07:51:57;8.70;79.60
14727;DHT22;7454;51.256;8.176;2022-11-04T07:54:23;8.70;79.60
14727;DHT22;7454;51.256;8.176;2022-11-04T07:56:49;8.80;79.70
14727;DHT22;7454;51.256;8.176;2022-11-04T07:59:14;8.80;79.80
14727;DHT22;7454;51.256;8.176;2022-11-04T08:01:40;8.80;79.70
14727;DHT22;7454;51.256;8.176;2022-11-04T08:04:05;8.90;79.80
14727;DHT22;7454;51.256;8.176;2022-11-04T08:06:32;8.90;79.70
14727;DHT22;7454;51.256;8.176;2022-11-04T08:08:58;8.90;79.80
14727;DHT22;7454;51.256;8.176;2022-11-04T08:11:24;8.90;79.70
14727;DHT22;7454;51.256;8.176;2022-11-04T08:13:53;9.00;79.80
14727;DHT22;7454;51.256;8.176;2022-11-04T08:16:20;9.00;79.70
14727;DHT22;7454;51.256;8.176;2022-11-04T08:18:47;9.10;79.60
14727;DHT22;7454;51.256;8.176;2022-11-04T08:21:13;9.00;79.80
14727;DHT22;7454;51.256;8.176;2022-11-04T08:23:39;9.10;79.90
14727;DHT22;7454;51.256;8.176;2022-11-04T08:26:08;9.20;79.70
14727;DHT22;7454;51.256;8.176;2022-11-04T08:28:35;9.20;79.80
14727;DHT22;7454;51.256;8.176;2022-11-04T08:31:03;9.20;79.80
14727;DHT22;7454;51.256;8.176;2022-11-04T08:33:31;9.40;79.90
14727;DHT22;7454;51.256;8.176;2022-11-04T08:35:59;9.40;79.90
14727;DHT22;7454;51.256;8.176;2022-11-04T08:38:36;9.40;79.80
14727;DHT22;7454;51.256;8.176;2022-11-04T08:41:03;9.40;79.80
14727;DHT22;7454;51.256;8.176;2022-11-04T08:43:29;9.40;79.90
14727;DHT22;7454;51.256;8.176;2022-11-04T08:45:55;9.40;80.00
14727;DHT22;7454;51.256;8.176;2022-11-04T08:48:21;9.50;79.80
14727;DHT22;7454;51.256;8.176;2022-11-04T08:50:48;9.50;79.80
14727;DHT22;7454;51.256;8.176;2022-11-04T08:53:18;9.60;79.80
14727;DHT22;7454;51.256;8.176;2022-11-04T08:55:44;9.70;79.80
14727;DHT22;7454;51.256;8.176;2022-11-04T08:58:10;9.80;80.00
14727;DHT22;7454;51.256;8.176;2022-11-04T09:00:36;9.80;80.00
14727;DHT22;7454;51.256;8.176;2022-11-04T09:03:02;9.90;80.10
14727;DHT22;7454;51.256;8.176;2022-11-04T09:05:27;10.00;79.80
14727;DHT22;7454;51.256;8.176;2022-11-04T09:07:53;9.90;79.70
14727;DHT22;7454;51.256;8.176;2022-11-04T09:10:19;9.80;79.60
14727;DHT22;7454;51.256;8.176;2022-11-04T09:12:45;9.90;79.60
14727;DHT22;7454;51.256;8.176;2022-11-04T09:15:11;9.90;79.60
14727;DHT22;7454;51.256;8.176;2022-11-04T09:17:37;10.00;79.50
14727;DHT22;7454;51.256;8.176;2022-11-04T09:20:03;10.00;79.50
14727;DHT22;7454;51.256;8.176;2022-11-04T09:22:30;10.00;79.40
14727;DHT22;7454;51.256;8.176;2022-11-04T09:24:56;10.00;79.50
14727;DHT22;7454;51.256;8.176;2022-11-04T09:27:22;10.00;79.40
14727;DHT22;7454;51.256;8.176;2022-11-04T09:29:48;10.10;79.60
14727;DHT22;7454;51.256;8.176;2022-11-04T09:32:13;10.10;79.70
14727;DHT22;7454;51.256;8.176;2022-11-04T09:34:39;10.20;79.50
14727;DHT22;7454;51.256;8.176;2022-11-04T09:37:05;10.20;79.40
14727;DHT22;7454;51.256;8.176;2022-11-04T09:39:30;10.30;79.40
14727;DHT22;7454;51.256;8.176;2022-11-04T09:41:59;10.30;79.40
14727;DHT22;7454;51.256;8.176;2022-11-04T09:47:03;10.30;79.20
14727;DHT22;7454;51.256;8.176;2022-11-04T09:49:29;10.30;79.40
14727;DHT22;7454;51.256;8.176;2022-11-04T09:51:58;10.40;79.40
14727;DHT22;7454;51.256;8.176;2022-11-04T09:57:02;10.40;79.30
14727;DHT22;7454;51.256;8.176;2022-11-04T09:59:31;10.50;79.30
14727;DHT22;7454;51.256;8.176;2022-11-04T10:02:01;10.50;79.40
14727;DHT22;7454;51.256;8.176;2022-11-04T10:04:51;10.60;79.40
14727;DHT22;7454;51.256;8.176;2022-11-04T10:23:44;10.90;79.10
14727;DHT22;7454;51.256;8.176;2022-11-04T10:26:17;10.90;79.00
14727;DHT22;7454;51.256;8.176;2022-11-04T10:28:49;11.00;79.00
14727;DHT22;7454;51.256;8.176;2022-11-04T10:31:19;10.90;78.80
14727;DHT22;7454;51.256;8.176;2022-11-04T10:33:49;11.10;79.30
14727;DHT22;7454;51.256;8.176;2022-11-04T10:36:17;11.10;79.00
14727;DHT22;7454;51.256;8.176;2022-11-04T10:38:47;11.20;79.00
14727;DHT22;7454;51.256;8.176;2022-11-04T10:43:54;11.40;79.10
14727;DHT22;7454;51.256;8.176;2022-11-04T10:52:11;11.60;78.30
14727;DHT22;7454;51.256;8.176;2022-11-04T10:54:41;11.60;78.50
14727;DHT22;7454;51.256;8.176;2022-11-04T10:57:10;11.70;78.80
14727;DHT22;7454;51.256;8.176;2022-11-04T10:59:53;11.70;78.90
14727;DHT22;7454;51.256;8.176;2022-11-04T11:02:46;11.70;78.60
14727;DHT22;7454;51.256;8.176;2022-11-04T11:05:13;11.80;78.70
14727;DHT22;7454;51.256;8.176;2022-11-04T11:07:42;11.80;78.30
14727;DHT22;7454;51.256;8.176;2022-11-04T11:10:28;11.80;78.40
14727;DHT22;7454;51.256;8.176;2022-11-04T11:15:25;11.80;78.40
14727;DHT22;7454;51.256;8.176;2022-11-04T11:20:31;11.70;78.60
14727;DHT22;7454;51.256;8.176;2022-11-04T11:23:02;11.70;78.30
14727;DHT22;7454;51.256;8.176;2022-11-04T11:25:32;11.60;78.30
14727;DHT22;7454;51.256;8.176;2022-11-04T11:32:56;11.60;78.40
14727;DHT22;7454;51.256;8.176;2022-11-04T11:35:25;11.50;78.50
14727;DHT22;7454;51.256;8.176;2022-11-04T11:37:56;11.50;78.30
14727;DHT22;7454;51.256;8.176;2022-11-04T11:40:44;11.60;78.50
14727;DHT22;7454;51.256;8.176;2022-11-04T11:43:14;11.50;78.50
14727;DHT22;7454;51.256;8.176;2022-11-04T11:45:47;11.50;78.40
14727;DHT22;7454;51.256;8.176;2022-11-04T11:48:27;11.50;78.50
14727;DHT22;7454;51.256;8.176;2022-11-04T11:50:55;11.50;78.40
14727;DHT22;7454;51.256;8.176;2022-11-04T11:53:24;11.50;78.60
14727;DHT22;7454;51.256;8.176;2022-11-04T11:56:06;11.50;78.50
14727;DHT22;7454;51.256;8.176;2022-11-04T11:58:54;11.50;78.70
14727;DHT22;7454;51.256;8.176;2022-11-04T12:01:50;11.50;78.80
14727;DHT22;7454;51.256;8.176;2022-11-04T12:04:22;11.50;78.70
14727;DHT22;7454;51.256;8.176;2022-11-04T12:06:51;11.50;78.50
14727;DHT22;7454;51.256;8.176;2022-11-04T12:09:31;11.40;78.40
14727;DHT22;7454;51.256;8.176;2022-11-04T12:12:06;11.40;78.40
14727;DHT22;7454;51.256;8.176;2022-11-04T12:23:08;11.30;78.60
14727;DHT22;7454;51.256;8.176;2022-11-04T12:29:10;11.30;78.90
14727;DHT22;7454;51.256;8.176;2022-11-04T12:31:30;11.30;78.70
14727;DHT22;7454;51.256;8.176;2022-11-04T12:36:50;11.30;79.00
14727;DHT22;7454;51.256;8.176;2022-11-04T12:48:03;11.20;79.40
14727;DHT22;7454;51.256;8.176;2022-11-04T12:50:55;11.20;79.30
14727;DHT22;7454;51.256;8.176;2022-11-04T12:56:23;11.10;79.30
14727;DHT22;7454;51.256;8.176;2022-11-04T13:01:51;11.10;79.70
14727;DHT22;7454;51.256;8.176;2022-11-04T13:04:19;11.00;79.00
14727;DHT22;7454;51.256;8.176;2022-11-04T13:06:55;11.00;78.80
14727;DHT22;7454;51.256;8.176;2022-11-04T13:09:39;10.90;79.00
14727;DHT22;7454;51.256;8.176;2022-11-04T13:12:13;11.00;78.90
14727;DHT22;7454;51.256;8.176;2022-11-04T13:14:46;10.90;79.20
14727;DHT22;7454;51.256;8.176;2022-11-04T13:17:15;11.00;78.90
14727;DHT22;7454;51.256;8.176;2022-11-04T13:19:48;11.00;79.10
14727;DHT22;7454;51.256;8.176;2022-11-04T13:22:17;11.00;79.10
14727;DHT22;7454;51.256;8.176;2022-11-04T13:24:53;11.10;79.00
14727;DHT22;7454;51.256;8.176;2022-11-04T13:27:22;11.10;79.10
14727;DHT22;7454;51.256;8.176;2022-11-04T13:29:50;11.10;78.90
14727;DHT22;7454;51.256;8.176;2022-11-04T13:32:39;11.10;79.00
14727;DHT22;7454;51.256;8.176;2022-11-04T13:38:02;11.10;79.10
14727;DHT22;7454;51.256;8.176;2022-11-04T13:40:33;11.10;79.00
14727;DHT22;7454;51.256;8.176;2022-11-04T13:43:17;11.20;79.10
14727;DHT22;7454;51.256;8.176;2022-11-04T13:48:49;11.20;79.60
14727;DHT22;7454;51.256;8.176;2022-11-04T13:51:16;11.20;79.60
14727;DHT22;7454;51.256;8.176;2022-11-04T13:53:44;11.10;79.40
14727;DHT22;7454;51.256;8.176;2022-11-04T13:59:25;11.10;79.40
14727;DHT22;7454;51.256;8.176;2022-11-04T14:04:39;11.10;80.00
14727;DHT22;7454;51.256;8.176;2022-11-04T14:07:08;11.10;80.10
14727;DHT22;7454;51.256;8.176;2022-11-04T14:14:36;11.10;80.30
14727;DHT22;7454;51.256;8.176;2022-11-04T14:17:02;11.10;79.00
14727;DHT22;7454;51.256;8.176;2022-11-04T14:22:13;11.10;79.60
14727;DHT22;7454;51.256;8.176;2022-11-04T14:24:39;11.00;79.30
14727;DHT22;7454;51.256;8.176;2022-11-04T14:27:05;11.00;79.40
14727;DHT22;7454;51.256;8.176;2022-11-04T14:29:48;11.00;79.60
14727;DHT22;7454;51.256;8.176;2022-11-04T14:32:17;10.90;79.60
14727;DHT22;7454;51.256;8.176;2022-11-04T14:34:56;11.00;79.60
14727;DHT22;7454;51.256;8.176;2022-11-04T14:37:23;11.00;79.70
14727;DHT22;7454;51.256;8.176;2022-11-04T14:39:54;11.00;79.70
14727;DHT22;7454;51.256;8.176;2022-11-04T14:45:08;10.90;79.70
14727;DHT22;7454;51.256;8.176;2022-11-04T14:47:40;10.80;79.50
14727;DHT22;7454;51.256;8.176;2022-11-04T14:50:13;10.80;79.70
14727;DHT22;7454;51.256;8.176;2022-11-04T14:58:48;10.80;80.00
14727;DHT22;7454;51.256;8.176;2022-11-04T15:00:52;10.80;80.00
14727;DHT22;7454;51.256;8.176;2022-11-04T15:05:47;10.90;80.00
14727;DHT22;7454;51.256;8.176;2022-11-04T15:11:07;10.80;80.00
14727;DHT22;7454;51.256;8.176;2022-11-04T15:14:10;10.80;80.00
14727;DHT22;7454;51.256;8.176;2022-11-04T15:16:38;10.80;80.10
14727;DHT22;7454;51.256;8.176;2022-11-04T15:19:06;10.80;80.00
14727;DHT22;7454;51.256;8.176;2022-11-04T15:21:36;10.80;80.30
14727;DHT22;7454;51.256;8.176;2022-11-04T15:24:03;10.80;80.30
14727;DHT22;7454;51.256;8.176;2022-11-04T15:26:30;10.80;80.00
14727;DHT22;7454;51.256;8.176;2022-11-04T15:29:00;10.80;80.00
14727;DHT22;7454;51.256;8.176;2022-11-04T15:31:29;10.80;80.10
14727;DHT22;7454;51.256;8.176;2022-11-04T15:33:59;10.80;80.20
14727;DHT22;7454;51.256;8.176;2022-11-04T15:36:34;10.80;80.00
14727;DHT22;7454;51.256;8.176;2022-11-04T15:39:01;10.70;79.80
14727;DHT22;7454;51.256;8.176;2022-11-04T15:41:28;10.80;80.00
14727;DHT22;7454;51.256;8.176;2022-11-04T15:44:20;10.70;79.80
14727;DHT22;7454;51.256;8.176;2022-11-04T15:46:49;10.70;80.00
14727;DHT22;7454;51.256;8.176;2022-11-04T15:49:23;10.70;79.80
14727;DHT22;7454;51.256;8.176;2022-11-04T15:52:00;10.60;80.00
14727;DHT22;7454;51.256;8.176;2022-11-04T15:54:36;10.70;80.30
14727;DHT22;7454;51.256;8.176;2022-11-04T16:00:00;10.70;80.30
14727;DHT22;7454;51.256;8.176;2022-11-04T16:02:48;10.60;80.20
14727;DHT22;7454;51.256;8.176;2022-11-04T16:07:44;10.50;80.50
14727;DHT22;7454;51.256;8.176;2022-11-04T16:12:46;10.50;80.80
14727;DHT22;7454;51.256;8.176;2022-11-04T16:18:04;10.50;81.00
14727;DHT22;7454;51.256;8.176;2022-11-04T16:20:31;10.50;80.90
14727;DHT22;7454;51.256;8.176;2022-11-04T16:22:59;10.50;81.00
14727;DHT22;7454;51.256;8.176;2022-11-04T16:25:28;10.50;80.80
14727;DHT22;7454;51.256;8.176;2022-11-04T16:27:58;10.50;80.70
14727;DHT22;7454;51.256;8.176;2022-11-04T16:30:24;10.50;80.80
14727;DHT22;7454;51.256;8.176;2022-11-04T16:32:50;10.40;80.80
14727;DHT22;7454;51.256;8.176;2022-11-04T16:35:22;10.40;81.00
14727;DHT22;7454;51.256;8.176;2022-11-04T16:37:52;10.30;81.10
14727;DHT22;7454;51.256;8.176;2022-11-04T16:40:21;10.40;81.00
14727;DHT22;7454;51.256;8.176;2022-11-04T16:42:47;10.40;80.90
14727;DHT22;7454;51.256;8.176;2022-11-04T16:45:25;10.40;80.90
14727;DHT22;7454;51.256;8.176;2022-11-04T16:47:52;10.40;81.00
14727;DHT22;7454;51.256;8.176;2022-11-04T16:50:18;10.40;81.10
14727;DHT22;7454;51.256;8.176;2022-11-04T16:52:45;10.40;81.10
14727;DHT22;7454;51.256;8.176;2022-11-04T16:55:11;10.30;81.20
14727;DHT22;7454;51.256;8.176;2022-11-04T16:57:38;10.30;81.30
14727;DHT22;7454;51.256;8.176;2022-11-04T17:00:03;10.30;81.30
14727;DHT22;7454;51.256;8.176;2022-11-04T17:02:32;10.30;81.40
14727;DHT22;7454;51.256;8.176;2022-11-04T17:05:02;10.30;81.40
14727;DHT22;7454;51.256;8.176;2022-11-04T17:07:29;10.20;81.40
14727;DHT22;7454;51.256;8.176;2022-11-04T17:09:55;10.30;81.50
14727;DHT22;7454;51.256;8.176;2022-11-04T17:12:21;10.30;81.60
14727;DHT22;7454;51.256;8.176;2022-11-04T17:14:46;10.30;81.30
14727;DHT22;7454;51.256;8.176;2022-11-04T17:17:12;10.20;81.40
14727;DHT22;7454;51.256;8.176;2022-11-04T17:19:38;10.20;81.40
14727;DHT22;7454;51.256;8.176;2022-11-04T17:22:05;10.20;81.40
14727;DHT22;7454;51.256;8.176;2022-11-04T17:24:31;10.40;81.40
14727;DHT22;7454;51.256;8.176;2022-11-04T17:26:57;10.30;81.50
14727;DHT22;7454;51.256;8.176;2022-11-04T17:29:23;10.20;81.30
14727;DHT22;7454;51.256;8.176;2022-11-04T17:31:49;10.30;81.40
14727;DHT22;7454;51.256;8.176;2022-11-04T17:34:14;10.30;81.40
14727;DHT22;7454;51.256;8.176;2022-11-04T17:36:40;10.30;80.90
14727;DHT22;7454;51.256;8.176;2022-11-04T17:39:06;10.30;81.10
14727;DHT22;7454;51.256;8.176;2022-11-04T17:41:31;10.30;81.10
14727;DHT22;7454;51.256;8.176;2022-11-04T17:44:15;10.30;80.90
14727;DHT22;7454;51.256;8.176;2022-11-04T17:46:41;10.30;81.00
14727;DHT22;7454;51.256;8.176;2022-11-04T17:49:13;10.30;80.80
14727;DHT22;7454;51.256;8.176;2022-11-04T17:51:40;10.30;80.50
14727;DHT22;7454;51.256;8.176;2022-11-04T17:54:07;10.30;80.40
14727;DHT22;7454;51.256;8.176;2022-11-04T17:56:33;10.20;80.40
14727;DHT22;7454;51.256;8.176;2022-11-04T17:59:00;10.20;80.40
14727;DHT22;7454;51.256;8.176;2022-11-04T18:01:26;10.10;80.70
14727;DHT22;7454;51.256;8.176;2022-11-04T18:03:52;10.10;80.80
14727;DHT22;7454;51.256;8.176;2022-11-04T18:06:19;10.00;80.80
14727;DHT22;7454;51.256;8.176;2022-11-04T18:08:45;10.00;80.70
14727;DHT22;7454;51.256;8.176;2022-11-04T18:11:12;9.90;80.60
14727;DHT22;7454;51.256;8.176;2022-11-04T18:13:58;9.90;80.60
14727;DHT22;7454;51.256;8.176;2022-11-04T18:16:24;9.80;80.40
14727;DHT22;7454;51.256;8.176;2022-11-04T18:18:50;9.80;80.40
14727;DHT22;7454;51.256;8.176;2022-11-04T18:21:15;9.80;80.20
14727;DHT22;7454;51.256;8.176;2022-11-04T18:23:41;9.70;80.30
14727;DHT22;7454;51.256;8.176;2022-11-04T18:26:08;9.60;80.30
14727;DHT22;7454;51.256;8.176;2022-11-04T18:28:35;9.60;80.20